KADF

Dexter B Florence Memorial Field Airport

Arkadelphia, Arkansas, USA
METAR KADF 190856Z AUTO 00000KT 6SM BR CLR 22/22 A2994 RMK AO2 SLP137 T02220217 56002 TSNO
Observed Flight Rules
Sep-19 @ 08:56 UTC (35 minutes ago) Visual Flight Rules
Visibility Clouds Conditions
6 miles
  • Clear skies
  • Mist
Temperatures Readings
Current 22°C / 72°F
Dewpoint 22°C / 72°F
Humidity 100%
Altimeter 29.94" Hg
Pressure 1013.7 hPa
Elevation 56
METAR KADF 190856Z AUTO 00000KT 6SM BR CLR 22/22 A2994 RMK AO2 SLP137 T02220217 56002 TSNO
Observed Flight Rules
Sep-19 @ 08:56 UTC
(35 minutes ago)
VFR
Clouds
  • Clear skies
Conditions
  • Mist
Temperature Dewpoint
22°C / 72°F 22°C / 72°F
Humidity Altimeter Pressure
100% 29.94" Hg 1013.7 hPa